Terminal Aerodrome Forecast
Issued by NWS

Home | Current Version | Previous Version | Text Only | Print | Product List | Glossary On
Versions: 1 2 3 4 5 6 7 8 9 10 11 12 13 14
000
FTUS44 KLIX 290520
TAFHUM
TAF
KHUM 290520Z 2906/3006 11008KT P6SM -SHRA SCT017 SCT025 OVC070
     FM290800 13006KT 4SM -TSRA BKN025CB OVC050
     FM291300 15007KT 6SM -SHRA VCTS OVC030CB
     FM291600 17009KT P6SM -SHRA VCTS BKN035CB
      AMD NOT SKED=

USA.gov is the U.S. government's official web portal to all federal, state and local government web resources and services.